Sacaton, Arizona
Current Conditions -  °F | °C
As of 10:35 AM on Wednesday 26 Nov 2014 (Local Time) from KCGZ Reporting Station
Clear Clear  
Wind Chill: 57°   Ceiling: Unl
Heat Index: 57°   Visibility: 10mi
Dew Point:   Wind: 0mph
Humidity: 14%   Direction: NA
Pressure: 30.32"   Gusts: NA
Location:  33.08°N, 111.75°W
Report Text: KCGZ 261735Z AUTO 00000KT 10SM CLR 14/M13 A3032 RMK AO1
Loading
Personal Weather Stations






























Interactive Weather Map New forecast layout! Learn more

10-Day Weather Forecast

Advertisements
Track Severe Weather on mobile